Logo AVAMET
Benvolgut visitant, si us plau, ingressa Recuperar contrasenya

Xàtiva Hostals

Dades diàries. Acumulats / Últims 30 dies disponibles

Data Temperatura (°C) Humitat rel. (%) Pressió rel. (hPa) Vent (km/h) Precipitació
Mínima Mitjana Màxima Amplitud
tèrmica
Mínima Mitjana Màxima Mínima Mitjana Màxima Predom. Mitjana Ràfega
màxima
Total
(mm)
Índex-n
Mínima Mitjana Màxima Mínima Mitjana Màxima n
0 a 1
P0 max
mm 5'
Dades mensuals acumulades fins l'últim dia disponible
01/2020 3,3 6,3 9,7 10,5 7,8 16,4 20,3 17,0 22 71 100 1.013 1.027 1.035   3,1 54,0 336,9
Dades anuals acumulades fins l'últim dia disponible
2020 3,3 6,3 9,7 10,5 7,8 16,4 20,3 17,0 22 71 100 1.013 1.027 1.035   3,1 54,0 336,9
Últims 30 dies disponibles
24-01-2020 8,4     10,5     12,5 4,1 78 89 94 1.021 1.022 1.024 SE 1,0 9,7 0,0
23-01-2020 5,5     9,4     14,9 9,4 66 83 93 1.019 1.021 1.023 SE 1,6 9,7 0,0
22-01-2020 7,0     10,4     14,0 7,0 72 84 99 1.018 1.018 1.019 SE 1,1 20,9 0,0
21-01-2020 7,1     9,2     11,1 4,0 99 99 100 1.013 1.016 1.021 SSE 2,8 27,0 114,9 0,42 9,70
20-01-2020 3,3     6,1     7,8 4,5 92 97 100 1.019 1.021 1.022 O 12,2 41,8 146,4 0,45 5,30
19-01-2020 6,1     10,2     15,7 9,6 60 79 100 1.016 1.018 1.021 SO 7,5 54,0 75,3 0,38 1,90
18-01-2020 9,7     13,5     18,1 8,4 40 58 70 1.021 1.028 1.033 SSE 6,7 28,1 0,0
17-01-2020 9,7     14,7     19,2 9,5 36 46 63 1.028 1.030 1.033 S 5,3 36,7 0,0
16-01-2020 8,7     13,4     20,0 11,3 42 60 71 1.026 1.028 1.030 ESE 3,1 22,0 0,0
15-01-2020 6,9     12,6     20,3 13,4 33 53 71 1.024 1.026 1.029 S 4,5 29,5 0,0
14-01-2020 7,4     12,1     19,6 12,2 22 45 64 1.021 1.023 1.025 SE 4,1 23,4 0,0
13-01-2020 3,6     10,3     20,1 16,5 24 51 74 1.022 1.026 1.031 SE 3,3 23,4 0,0
12-01-2020 4,3     8,8     16,3 12,0 26 57 74 1.029 1.031 1.032 SE 1,4 13,3 0,0
11-01-2020 5,4     10,3     16,1 10,7 42 64 82 1.029 1.031 1.033 SE 1,4 9,7 0,0
10-01-2020 7,7     11,2     16,0 8,3 41 67 77 1.023 1.026 1.030 S 3,7 33,1 0,3
09-01-2020 6,0     10,4     17,1 11,1 53 76 94 1.025 1.028 1.031 E 2,3 30,6 0,0
08-01-2020 6,1     9,7     14,7 8,6 51 74 86 1.028 1.031 1.033 SSE 1,6 13,3 0,0
07-01-2020 5,0     9,7     17,4 12,4 41 71 87 1.028 1.031 1.033 ESE 1,3 14,8 0,0
06-01-2020 7,4     11,4     17,9 10,5 44 69 84 1.028 1.030 1.032 SSE 1,3 9,7 0,0
05-01-2020 5,3     10,3     18,8 13,5 41 68 84 1.027 1.029 1.032 ESE 1,2 11,2 0,0
04-01-2020 5,4     9,7     16,8 11,4 49 73 91 1.032 1.033 1.035 SE 2,1 13,3 0,0
03-01-2020 4,4     8,9     17,0 12,6 48 78 90 1.030 1.031 1.034 SSE 1,2 11,2 0,0
02-01-2020 4,2     8,8     16,0 11,8 57 79 95 1.030 1.032 1.034 SE 1,8 15,8 0,0
01-01-2020 6,1     9,8     15,8 9,7 54 73 88 1.031 1.032 1.034 SSE 2,3 20,9 0,0
31-12-2019 5,4     9,4     15,7 10,3 57 77 88 1.032 1.033 1.036 SE 1,3 8,6 0,0
30-12-2019 7,7     11,4     15,5 7,8 58 74 83 1.032 1.033 1.035 SSE 1,2 9,7 0,0
29-12-2019 8,0     10,6     16,4 8,4 58 75 83 1.030 1.033 1.035 SE 3,0 23,4 0,0
28-12-2019 6,0     10,4     16,3 10,3 54 77 92 1.030 1.031 1.033 SSE 1,7 11,2 0,0
27-12-2019 8,1     13,0     21,7 13,6 44 68 88 1.028 1.030 1.032 SE 0,9 7,2 0,0
26-12-2019 11,2     15,8     25,6 14,4 30 51 69 1.024 1.026 1.031 ESE 1,6 13,3 0,0
Últims 13 mesos disponibles
12/2019 5,4 10,6 17,8 14,0 11,4 18,8 25,6 20,2 43 66 96 1.004 1.020 1.033 SSE 4,6 66,2 162,6
11/2019 5,9 12,1 21,1 15,7 16,2 20,0 27,7 21,8 39 52 70 1.001 1.013 1.020 S 7,0 57,6 9,0
10/2019 11,4 16,4 20,2 20,8 16,3 26,7 35,0 23,6 34 60 85 1.010 1.019 1.024 SSE 3,3 33,1 53,7
09/2019 14,6 20,1 23,5 24,1 20,5 29,5 36,9 22,3 32 67 92 1.013 1.020 1.026 S 3,8 39,2 134,1
08/2019 18,3 22,4 26,7 27,6 29,0 34,4 42,7 24,4 33 60 77 1.013 1.018 1.023 OSO 3,9 34,2 6,6
07/2019 21,1 22,9 26,5 28,2 29,1 34,9 40,2 19,1 31 55 73 1.009 1.017 1.024 SO 4,6 37,8 2,7
06/2019 13,4 18,2 22,4 24,2 23,2 30,9 39,7 26,3 27 52 71 1.012 1.018 1.024 SO 4,5 40,3 0,0
05/2019 9,3 14,9 21,1 20,1 19,9 26,6 33,3 24,0 40 57 79 1.008 1.017 1.026 S 4,3 41,8 33,0
04/2019 9,5 11,9 15,5 15,9 13,5 21,1 29,9 20,4 34 61 98 1.001 1.015 1.026 S 5,5 50,0 202,2
03/2019 5,9 9,8 15,5 15,3 12,4 21,7 28,6 22,7 27 48 90 1.015 1.024 1.032 N 3,9 37,8 57,9
02/2019 4,9 8,0 11,8 13,2 13,7 19,8 27,1 22,2 30 55 77 998 1.027 1.035 N 3,5 54,0 0,0
01/2019 0,8 7,1 13,3 11,6 13,1 17,6 22,2 21,4 35 51 70 1.005 1.021 1.033 N 3,9 54,0 0,0
12/2018 5,1 9,0 14,4 13,6 14,2 19,9 26,1 21,0 36 60 80 1.011 1.027 1.033 N 2,9 46,4 13,5
Tots els anys disponibles
2019 0,8 14,6 26,7 19,3 11,4 25,2 42,7 41,9 27 57 98 998 1.019 1.035 S 4,4 66,2 661,8
2018 2,3 14,9 26,0 19,6 8,3 24,9 40,0 37,7 26 58 97 993 1.017 1.035 0,9 81,0 528,6
Temperatura (°C)
Humitat relativa (%)
Velocitat del vent i ràfega màxima (km/h)
Direcció del vent (°)
Pressió (hPa)
Precipitació (mm)
Nota sobre les dades: s'avisa a l'usuari de la provisionalitat i no oficialitat d'aquestes dades
Logo AVAMET blanc
Web allotjada a Sollutia
Llicència de Creative CommonsLa web d'AVAMET i els seus continguts estan subjectes a una llicència de
Reconeixement - No Comercial - Compartir igual
Últimes estacions: Xixona - Els Ameradors (Soci), Agres - El Tossal (Soci), Xàbia - Bevenguts (MeteoXàbia), Llíria (Aj. Soci/Inforatge), Orihuela - Lo Capitán, Cox & Guardamar del Segura - horta (Meteorihuela), l'Alcúdia - Carriona & el Real de Gandia (Inforatge), Benicàssim - les Vil·les (Soci),  l'Alfàs del Pi - l'Albir (Soci), - - -